createdAt,value
2022-08-28T00:02:08.132Z,100.00
2022-08-28T00:07:10.204Z,100.00
2022-08-28T00:12:12.550Z,100.00
2022-08-28T00:17:14.378Z,100.00
2022-08-28T00:22:16.601Z,100.00
2022-08-28T00:27:36.970Z,100.00
2022-08-28T00:32:38.783Z,100.00
2022-08-28T00:37:40.571Z,100.00
2022-08-28T00:42:43.167Z,100.00
2022-08-28T00:47:45.876Z,100.00
2022-08-28T00:52:53.135Z,100.00
2022-08-28T00:57:59.154Z,100.00
2022-08-28T01:03:01.319Z,100.00
2022-08-28T01:08:06.344Z,100.00
2022-08-28T01:13:08.765Z,100.00
2022-08-28T01:18:15.834Z,100.00
2022-08-28T01:23:39.380Z,100.00
2022-08-28T01:28:42.752Z,100.00
2022-08-28T01:33:47.608Z,100.00
2022-08-28T01:38:59.187Z,100.00
2022-08-28T01:44:01.239Z,100.00
2022-08-28T01:49:03.919Z,100.00
2022-08-28T01:54:06.240Z,100.00
2022-08-28T01:59:10.854Z,100.00
2022-08-28T02:04:13.045Z,100.00
2022-08-28T02:09:15.039Z,100.00
2022-08-28T02:14:16.916Z,100.00
2022-08-28T02:19:18.837Z,100.00
2022-08-28T02:24:20.687Z,100.00
2022-08-28T02:29:22.504Z,100.00
2022-08-28T02:34:24.397Z,100.00
2022-08-28T02:39:26.260Z,100.00
2022-08-28T02:44:28.111Z,100.00
2022-08-28T02:49:31.365Z,100.00
2022-08-28T02:54:39.860Z,100.00
2022-08-28T02:59:43.505Z,100.00
2022-08-28T03:04:45.346Z,100.00
2022-08-28T03:09:47.218Z,100.00
2022-08-28T03:14:49.042Z,100.00
2022-08-28T03:19:51.179Z,100.00
2022-08-28T03:24:52.996Z,100.00
2022-08-28T03:29:54.886Z,100.00
2022-08-28T03:34:56.717Z,100.00
2022-08-28T03:39:58.562Z,100.00
2022-08-28T03:45:00.567Z,100.00
2022-08-28T03:50:02.739Z,100.00
2022-08-28T03:55:08.678Z,100.00
2022-08-28T04:00:13.307Z,100.00
2022-08-28T04:05:17.705Z,100.00
2022-08-28T04:10:20.093Z,100.00
2022-08-28T04:15:22.549Z,100.00
2022-08-28T04:20:24.367Z,100.00
2022-08-28T04:25:26.181Z,100.00
2022-08-28T04:30:28.046Z,100.00
2022-08-28T04:35:29.965Z,100.00
2022-08-28T04:40:31.888Z,100.00
2022-08-28T04:45:38.368Z,100.00
2022-08-28T04:50:46.070Z,100.00
2022-08-28T04:55:54.539Z,100.00
2022-08-28T05:00:57.150Z,100.00
2022-08-28T05:05:59.311Z,100.00
2022-08-28T05:11:32.652Z,100.00
2022-08-28T05:17:02.047Z,100.00
2022-08-28T05:22:04.000Z,100.00
2022-08-28T05:27:07.167Z,100.00
2022-08-28T05:32:09.465Z,100.00
2022-08-28T05:37:17.752Z,100.00
2022-08-28T05:42:21.921Z,100.00
2022-08-28T05:47:24.587Z,100.00
2022-08-28T05:52:26.455Z,100.00
2022-08-28T05:57:29.681Z,100.00
2022-08-28T06:02:31.854Z,100.00
2022-08-28T06:07:34.619Z,100.00
2022-08-28T06:12:36.561Z,100.00
2022-08-28T06:17:38.431Z,100.00
2022-08-28T06:22:40.453Z,100.00
2022-08-28T06:27:42.509Z,100.00
2022-08-28T06:32:44.475Z,100.00
2022-08-28T06:37:46.347Z,100.00
2022-08-28T06:42:48.206Z,100.00
2022-08-28T06:47:50.024Z,100.00
2022-08-28T06:52:55.240Z,100.00
2022-08-28T06:57:57.024Z,100.00
2022-08-28T07:02:59.924Z,100.00
2022-08-28T07:08:01.997Z,100.00
2022-08-28T07:13:05.539Z,100.00
2022-08-28T07:18:07.400Z,100.00
2022-08-28T07:23:09.728Z,100.00
2022-08-28T07:28:11.565Z,100.00
2022-08-28T07:33:14.450Z,100.00
2022-08-28T07:38:17.028Z,100.00
2022-08-28T07:43:37.326Z,100.00
2022-08-28T07:48:41.514Z,100.00
2022-08-28T07:53:43.383Z,100.00
2022-08-28T07:58:45.484Z,100.00
2022-08-28T08:03:47.445Z,100.00
2022-08-28T08:08:50.706Z,100.00
2022-08-28T08:13:54.704Z,100.00
2022-08-28T08:18:57.632Z,100.00
2022-08-28T08:23:59.705Z,100.00
2022-08-28T08:29:01.596Z,100.00
2022-08-28T08:34:05.196Z,100.00
2022-08-28T08:39:09.745Z,100.00
2022-08-28T08:44:34.080Z,100.00
2022-08-28T08:49:47.569Z,100.00
2022-08-28T08:55:21.890Z,100.00
2022-08-28T09:00:23.961Z,100.00
2022-08-28T09:05:50.190Z,100.00
2022-08-28T09:11:12.534Z,100.00
2022-08-28T09:16:40.696Z,100.00
2022-08-28T09:21:44.867Z,100.00
2022-08-28T09:27:05.152Z,100.00
2022-08-28T09:32:43.831Z,100.00
2022-08-28T09:37:45.712Z,100.00
2022-08-28T09:43:28.920Z,100.00
2022-08-28T09:48:43.497Z,100.00
2022-08-28T09:53:57.357Z,100.00
2022-08-28T09:59:06.940Z,100.00
2022-08-28T10:04:37.622Z,100.00
2022-08-28T10:10:09.429Z,100.00
2022-08-28T10:15:42.486Z,100.00
2022-08-28T10:21:01.392Z,100.00
2022-08-28T10:26:18.453Z,100.00
2022-08-28T10:31:52.829Z,100.00
2022-08-28T10:37:25.213Z,100.00
2022-08-28T10:42:36.695Z,100.00
2022-08-28T10:47:44.786Z,100.00
2022-08-28T10:52:53.714Z,100.00
2022-08-28T10:58:03.691Z,100.00
2022-08-28T11:03:33.191Z,100.00
2022-08-28T11:08:38.382Z,100.00
2022-08-28T11:13:43.094Z,100.00
2022-08-28T11:19:03.916Z,100.00
2022-08-28T11:24:10.331Z,100.00
2022-08-28T11:29:12.195Z,100.00
2022-08-28T11:34:52.260Z,100.00
2022-08-28T11:40:18.837Z,100.00
2022-08-28T11:45:42.667Z,100.00
2022-08-28T11:51:06.979Z,100.00
2022-08-28T11:56:14.110Z,100.00
2022-08-28T12:01:35.531Z,100.00
2022-08-28T12:06:50.293Z,100.00
2022-08-28T12:12:21.550Z,100.00
2022-08-28T12:17:25.936Z,100.00
2022-08-28T12:22:47.818Z,100.00
2022-08-28T12:27:49.911Z,100.00
2022-08-28T12:33:18.773Z,100.00
2022-08-28T12:38:22.599Z,100.00
2022-08-28T12:43:40.839Z,100.00
2022-08-28T12:48:53.090Z,100.00
2022-08-28T12:53:57.843Z,100.00
2022-08-28T12:59:27.203Z,100.00
2022-08-28T13:04:34.487Z,100.00
2022-08-28T13:09:37.151Z,100.00
2022-08-28T13:14:43.794Z,100.00
2022-08-28T13:19:45.754Z,100.00
2022-08-28T13:24:48.234Z,100.00
2022-08-28T13:29:57.486Z,100.00
2022-08-28T13:35:18.056Z,100.00
2022-08-28T13:40:56.945Z,100.00
2022-08-28T13:45:48.769Z,100.00
2022-08-28T13:50:56.461Z,100.00
2022-08-28T13:56:00.252Z,89.31
2022-08-28T14:01:02.768Z,80.35
2022-08-28T14:06:14.214Z,66.65
2022-08-28T14:11:16.181Z,55.83
2022-08-28T14:16:18.143Z,49.93
2022-08-28T14:21:20.939Z,45.87
2022-08-28T14:26:22.831Z,47.82
2022-08-28T14:31:26.767Z,48.55
2022-08-28T14:36:30.305Z,45.12
2022-08-28T14:41:32.646Z,46.43
2022-08-28T14:46:36.267Z,49.35
2022-08-28T14:51:39.779Z,54.41
2022-08-28T14:56:43.557Z,64.33
2022-08-28T15:01:46.521Z,83.96
2022-08-28T15:06:50.857Z,100.00
2022-08-28T15:11:53.454Z,100.00
2022-08-28T15:16:55.474Z,100.00
2022-08-28T15:21:58.445Z,100.00
2022-08-28T15:27:01.589Z,100.00
2022-08-28T15:32:04.230Z,100.00
2022-08-28T15:37:07.801Z,100.00
2022-08-28T15:42:11.542Z,100.00
2022-08-28T15:47:15.313Z,100.00
2022-08-28T15:52:19.217Z,100.00
2022-08-28T15:57:21.093Z,100.00
2022-08-28T16:02:24.331Z,100.00
2022-08-28T16:07:26.195Z,100.00
2022-08-28T16:12:27.870Z,100.00
2022-08-28T16:17:29.526Z,100.00
2022-08-28T16:22:31.164Z,100.00
2022-08-28T16:27:33.445Z,100.00
2022-08-28T16:32:35.184Z,100.00
2022-08-28T16:37:40.073Z,100.00
2022-08-28T16:42:42.213Z,100.00
2022-08-28T16:47:53.177Z,100.00
2022-08-28T16:52:55.100Z,100.00
2022-08-28T16:57:56.782Z,100.00
2022-08-28T17:02:58.522Z,100.00
2022-08-28T17:08:00.317Z,100.00
2022-08-28T17:13:02.136Z,100.00
2022-08-28T17:18:03.891Z,100.00
2022-08-28T17:23:05.882Z,100.00
2022-08-28T17:28:07.769Z,100.00
2022-08-28T17:33:09.519Z,100.00
2022-08-28T17:38:12.012Z,100.00
2022-08-28T17:43:13.832Z,100.00
2022-08-28T17:48:17.033Z,100.00
2022-08-28T17:53:18.933Z,100.00
2022-08-28T17:58:20.868Z,100.00
2022-08-28T18:03:22.478Z,100.00
2022-08-28T18:08:25.615Z,100.00
2022-08-28T18:13:27.414Z,100.00
2022-08-28T18:18:32.325Z,100.00
2022-08-28T18:23:39.636Z,100.00
2022-08-28T18:28:41.275Z,100.00
2022-08-28T18:33:42.931Z,100.00
2022-08-28T18:38:44.846Z,100.00
2022-08-28T18:43:47.003Z,100.00
2022-08-28T18:48:48.953Z,100.00
2022-08-28T18:53:50.847Z,100.00
2022-08-28T18:58:52.759Z,100.00
2022-08-28T19:03:55.828Z,100.00
2022-08-28T19:08:57.638Z,100.00
2022-08-28T19:13:59.730Z,100.00
2022-08-28T19:19:05.633Z,100.00
2022-08-28T19:24:10.732Z,100.00
2022-08-28T19:29:12.789Z,100.00
2022-08-28T19:34:14.670Z,100.00
2022-08-28T19:39:16.597Z,100.00
2022-08-28T19:44:18.683Z,100.00
2022-08-28T19:49:20.321Z,100.00
2022-08-28T19:54:21.967Z,100.00
2022-08-28T19:59:27.023Z,100.00
2022-08-28T20:04:30.849Z,100.00
2022-08-28T20:09:32.526Z,100.00
2022-08-28T20:14:34.428Z,100.00
2022-08-28T20:19:36.290Z,100.00
2022-08-28T20:24:39.217Z,100.00
2022-08-28T20:29:40.952Z,100.00
2022-08-28T20:34:44.522Z,100.00
2022-08-28T20:39:47.296Z,100.00
2022-08-28T20:44:51.626Z,100.00
2022-08-28T20:49:53.384Z,100.00
2022-08-28T20:54:55.054Z,100.00
2022-08-28T20:59:56.936Z,100.00
2022-08-28T21:04:58.614Z,100.00
2022-08-28T21:10:05.847Z,100.00
2022-08-28T21:15:12.535Z,100.00
2022-08-28T21:20:16.131Z,100.00
2022-08-28T21:25:20.611Z,100.00
2022-08-28T21:30:22.453Z,100.00
2022-08-28T21:35:24.661Z,100.00
2022-08-28T21:40:26.419Z,100.00
2022-08-28T21:45:28.116Z,100.00
2022-08-28T21:50:29.854Z,100.00
2022-08-28T21:55:31.792Z,100.00
2022-08-28T22:00:33.478Z,100.00
2022-08-28T22:05:37.672Z,100.00
2022-08-28T22:10:41.143Z,100.00
2022-08-28T22:15:45.088Z,100.00
2022-08-28T22:21:05.898Z,100.00
2022-08-28T22:26:12.302Z,100.00
2022-08-28T22:31:14.407Z,100.00
2022-08-28T22:36:17.395Z,100.00
2022-08-28T22:41:20.242Z,100.00
2022-08-28T22:46:22.313Z,100.00
2022-08-28T22:51:24.003Z,100.00
2022-08-28T22:56:25.716Z,100.00
2022-08-28T23:01:27.968Z,100.00
2022-08-28T23:06:31.288Z,100.00
2022-08-28T23:11:34.785Z,100.00
2022-08-28T23:16:36.457Z,100.00
2022-08-28T23:21:40.913Z,100.00
2022-08-28T23:26:45.800Z,100.00
2022-08-28T23:31:47.925Z,100.00
2022-08-28T23:36:49.756Z,100.00
2022-08-28T23:41:53.107Z,100.00
2022-08-28T23:46:54.751Z,100.00
2022-08-28T23:51:57.818Z,100.00
2022-08-28T23:57:01.324Z,100.00
